createdAt,value
2018-12-31T00:00:30.374Z,101702.20
2018-12-31T00:02:59.523Z,101694.97
2018-12-31T00:05:28.649Z,101697.60
2018-12-31T00:07:57.791Z,101698.39
2018-12-31T00:10:26.928Z,101694.63
2018-12-31T00:12:56.095Z,101693.64
2018-12-31T00:15:25.224Z,101695.14
2018-12-31T00:17:54.373Z,101693.80
2018-12-31T00:20:23.527Z,101695.62
2018-12-31T00:22:52.680Z,101694.95
2018-12-31T00:25:21.826Z,101693.48
2018-12-31T00:27:50.977Z,101695.41
2018-12-31T00:30:20.100Z,101695.77
2018-12-31T00:32:49.259Z,101693.78
2018-12-31T00:35:18.495Z,101703.69
2018-12-31T00:37:47.623Z,101701.37
2018-12-31T00:40:16.752Z,101701.03
2018-12-31T00:42:45.901Z,101703.19
2018-12-31T00:45:15.043Z,101700.38
2018-12-31T00:47:44.184Z,101704.98
2018-12-31T00:50:13.309Z,101702.67
2018-12-31T00:52:42.487Z,101705.00
2018-12-31T00:55:11.616Z,101702.69
2018-12-31T00:57:40.750Z,101703.98
2018-12-31T01:00:09.979Z,101704.32
2018-12-31T01:02:39.101Z,101702.51
2018-12-31T01:05:08.263Z,101703.98
2018-12-31T01:07:37.396Z,101702.02
2018-12-31T01:10:07.090Z,101694.41
2018-12-31T01:12:36.218Z,101691.60
2018-12-31T01:15:05.445Z,101685.02
2018-12-31T01:17:34.581Z,101678.55
2018-12-31T01:20:03.736Z,101674.27
2018-12-31T01:22:32.866Z,101673.29
2018-12-31T01:25:02.023Z,101676.07
2018-12-31T01:27:31.157Z,101678.53
2018-12-31T01:30:00.350Z,101681.34
2018-12-31T01:32:29.487Z,101680.02
2018-12-31T01:34:58.633Z,101679.38
2018-12-31T01:37:27.754Z,101685.30
2018-12-31T01:39:56.892Z,101681.49
2018-12-31T01:42:26.038Z,101679.36
2018-12-31T01:44:55.181Z,101678.52
2018-12-31T01:47:24.297Z,101680.33
2018-12-31T01:49:53.442Z,101679.52
2018-12-31T01:52:22.580Z,101682.96
2018-12-31T01:54:51.737Z,101682.64
2018-12-31T01:57:20.888Z,101689.58
2018-12-31T01:59:50.038Z,101693.39
2018-12-31T02:02:19.158Z,101694.52
2018-12-31T02:04:48.479Z,101694.36
2018-12-31T02:07:17.602Z,101686.92
2018-12-31T02:09:46.750Z,101680.66
2018-12-31T02:12:15.882Z,101681.16
2018-12-31T02:14:45.032Z,101682.95
2018-12-31T02:17:14.155Z,101677.69
2018-12-31T02:19:43.309Z,101675.34
2018-12-31T02:22:12.442Z,101683.79
2018-12-31T02:24:41.584Z,101682.14
2018-12-31T02:27:10.738Z,101685.09
2018-12-31T02:29:39.884Z,101682.30
2018-12-31T02:32:09.013Z,101683.30
2018-12-31T02:34:38.161Z,101689.39
2018-12-31T02:37:07.295Z,101688.24
2018-12-31T02:39:36.426Z,101692.53
2018-12-31T02:42:05.573Z,101682.98
2018-12-31T02:44:34.702Z,101684.78
2018-12-31T02:47:03.890Z,101682.63
2018-12-31T02:49:33.052Z,101687.42
2018-12-31T02:52:02.218Z,101683.45
2018-12-31T02:54:31.335Z,101675.53
2018-12-31T02:57:00.496Z,101682.80
2018-12-31T02:59:29.627Z,101669.77
2018-12-31T03:01:58.768Z,101664.64
2018-12-31T03:04:27.965Z,101665.80
2018-12-31T03:06:57.099Z,101664.97
2018-12-31T03:09:26.225Z,101667.27
2018-12-31T03:11:55.377Z,101674.69
2018-12-31T03:14:24.512Z,101670.40
2018-12-31T03:16:53.661Z,101666.77
2018-12-31T03:19:22.795Z,101666.12
2018-12-31T03:21:51.934Z,101659.35
2018-12-31T03:24:21.057Z,101663.63
2018-12-31T03:26:50.195Z,101660.98
2018-12-31T03:29:19.315Z,101654.73
2018-12-31T03:31:48.477Z,101656.52
2018-12-31T03:34:17.622Z,101659.48
2018-12-31T03:36:46.765Z,101661.29
2018-12-31T03:39:15.893Z,101659.00
2018-12-31T03:41:45.049Z,101662.45
2018-12-31T03:44:14.169Z,101653.89
2018-12-31T03:46:43.308Z,101650.90
2018-12-31T03:49:12.513Z,101647.94
2018-12-31T03:51:41.660Z,101644.95
2018-12-31T03:54:10.800Z,101645.11
2018-12-31T03:56:39.955Z,101645.77
2018-12-31T03:59:09.089Z,101640.99
2018-12-31T04:01:38.254Z,101640.98
2018-12-31T04:04:07.386Z,101639.66
2018-12-31T04:06:36.546Z,101637.67
2018-12-31T04:09:06.740Z,101638.69
2018-12-31T04:11:35.891Z,101639.83
2018-12-31T04:14:05.010Z,101628.43
2018-12-31T04:16:34.172Z,101628.77
2018-12-31T04:19:03.306Z,101628.11
2018-12-31T04:21:32.450Z,101622.98
2018-12-31T04:24:01.575Z,101630.25
2018-12-31T04:26:30.698Z,101629.92
2018-12-31T04:28:59.845Z,101629.09
2018-12-31T04:31:28.976Z,101626.14
2018-12-31T04:33:58.124Z,101638.33
2018-12-31T04:36:27.245Z,101643.45
2018-12-31T04:38:56.391Z,101636.70
2018-12-31T04:41:25.538Z,101641.48
2018-12-31T04:43:54.682Z,101638.98
2018-12-31T04:46:23.831Z,101642.45
2018-12-31T04:48:52.979Z,101646.08
2018-12-31T04:51:22.128Z,101641.62
2018-12-31T04:53:51.288Z,101646.41
2018-12-31T04:56:20.412Z,101646.58
2018-12-31T04:58:49.562Z,101651.19
2018-12-31T05:01:18.708Z,101651.02
2018-12-31T05:03:47.877Z,101645.92
2018-12-31T05:06:17.018Z,101642.77
2018-12-31T05:08:46.169Z,101646.25
2018-12-31T05:11:15.298Z,101641.62
2018-12-31T05:13:44.431Z,101638.16
2018-12-31T05:16:13.573Z,101642.44
2018-12-31T05:18:42.723Z,101636.16
2018-12-31T05:21:11.891Z,101641.93
2018-12-31T05:23:41.001Z,101643.08
2018-12-31T05:26:10.123Z,101648.35
2018-12-31T05:28:39.272Z,101648.19
2018-12-31T05:31:08.411Z,101650.52
2018-12-31T05:33:37.561Z,101651.33
2018-12-31T05:36:06.691Z,101656.45
2018-12-31T05:38:35.825Z,101657.78
2018-12-31T05:41:04.975Z,101664.20
2018-12-31T05:43:34.124Z,101666.36
2018-12-31T05:46:03.271Z,101667.52
2018-12-31T05:48:32.417Z,101674.75
2018-12-31T05:51:01.549Z,101680.53
2018-12-31T05:53:30.696Z,101676.26
2018-12-31T05:55:59.834Z,101665.86
2018-12-31T05:58:28.991Z,101670.78
2018-12-31T06:00:58.121Z,101671.27
2018-12-31T06:03:27.277Z,101674.42
2018-12-31T06:05:56.400Z,101675.08
2018-12-31T06:08:25.716Z,101674.92
2018-12-31T06:10:54.849Z,101677.56
2018-12-31T06:13:24.008Z,101679.38
2018-12-31T06:15:53.142Z,101685.14
2018-12-31T06:18:22.280Z,101691.42
2018-12-31T06:20:51.423Z,101694.25
2018-12-31T06:23:20.560Z,101693.73
2018-12-31T06:25:49.703Z,101694.73
2018-12-31T06:28:18.831Z,101691.27
2018-12-31T06:30:47.973Z,101694.40
2018-12-31T06:33:17.118Z,101696.55
2018-12-31T06:35:46.272Z,101699.20
2018-12-31T06:38:15.416Z,101697.71
2018-12-31T06:40:44.587Z,101707.78
2018-12-31T06:43:13.723Z,101717.67
2018-12-31T06:45:42.883Z,101712.41
2018-12-31T06:48:12.019Z,101716.17
2018-12-31T06:50:41.180Z,101715.02
2018-12-31T06:53:10.326Z,101717.84
2018-12-31T06:55:39.475Z,101718.97
2018-12-31T06:58:08.606Z,101712.22
2018-12-31T07:00:37.774Z,101720.63
2018-12-31T07:03:06.908Z,101721.45
2018-12-31T07:05:36.073Z,101725.58
2018-12-31T07:08:05.211Z,101730.04
2018-12-31T07:10:34.372Z,101727.91
2018-12-31T07:13:03.502Z,101736.30
2018-12-31T07:15:32.643Z,101737.47
2018-12-31T07:18:01.781Z,101733.34
2018-12-31T07:20:30.936Z,101733.18
2018-12-31T07:23:00.078Z,101737.80
2018-12-31T07:25:29.272Z,101741.75
2018-12-31T07:27:58.416Z,101742.08
2018-12-31T07:30:27.577Z,101749.52
2018-12-31T07:32:56.751Z,101753.64
2018-12-31T07:35:25.897Z,101751.69
2018-12-31T07:37:55.030Z,101750.52
2018-12-31T07:40:24.188Z,101753.15
2018-12-31T07:42:53.321Z,101751.18
2018-12-31T07:45:24.211Z,101754.95
2018-12-31T07:47:53.280Z,101749.36
2018-12-31T07:50:22.448Z,101754.45
2018-12-31T07:52:51.578Z,101759.57
2018-12-31T07:55:20.712Z,101760.06
2018-12-31T07:57:49.847Z,101768.51
2018-12-31T08:00:19.000Z,101765.70
2018-12-31T08:02:48.142Z,101769.47
2018-12-31T08:05:17.323Z,101769.81
2018-12-31T08:07:46.449Z,101773.76
2018-12-31T08:10:15.653Z,101772.59
2018-12-31T08:12:44.794Z,101767.16
2018-12-31T08:15:13.937Z,101772.27
2018-12-31T08:17:43.067Z,101770.44
2018-12-31T08:20:12.227Z,101773.58
2018-12-31T08:22:41.364Z,101780.83
2018-12-31T08:25:10.540Z,101788.77
2018-12-31T08:27:39.661Z,101790.56
2018-12-31T08:30:08.859Z,101791.73
2018-12-31T08:32:38.009Z,101793.88
2018-12-31T08:35:07.152Z,101798.36
2018-12-31T08:37:36.295Z,101797.69
2018-12-31T08:40:06.000Z,101795.34
2018-12-31T08:42:35.155Z,101796.01
2018-12-31T08:45:05.400Z,101792.87
2018-12-31T08:47:34.545Z,101794.50
2018-12-31T08:50:03.681Z,101790.55
2018-12-31T08:52:32.830Z,101793.88
2018-12-31T08:55:01.971Z,101794.17
2018-12-31T08:57:31.116Z,101798.63
2018-12-31T09:00:00.258Z,101792.35
2018-12-31T09:02:29.413Z,101791.88
2018-12-31T09:04:58.569Z,101789.04
2018-12-31T09:07:27.739Z,101792.18
2018-12-31T09:09:56.884Z,101793.17
2018-12-31T09:12:26.041Z,101794.32
2018-12-31T09:14:55.191Z,101788.39
2018-12-31T09:17:24.337Z,101789.53
2018-12-31T09:19:53.487Z,101796.95
2018-12-31T09:22:22.711Z,101793.49
2018-12-31T09:24:51.844Z,101788.52
2018-12-31T09:27:21.006Z,101791.98
2018-12-31T09:29:50.140Z,101789.36
2018-12-31T09:32:19.287Z,101789.17
2018-12-31T09:34:48.435Z,101800.57
2018-12-31T09:37:17.589Z,101803.55
2018-12-31T09:39:46.734Z,101798.77
2018-12-31T09:42:15.888Z,101799.58
2018-12-31T09:44:45.041Z,101797.41
2018-12-31T09:47:14.197Z,101796.75
2018-12-31T09:49:43.345Z,101794.78
2018-12-31T09:52:12.514Z,101796.09
2018-12-31T09:54:41.685Z,101798.25
2018-12-31T09:57:10.852Z,101797.91
2018-12-31T09:59:40.006Z,101792.63
2018-12-31T10:02:09.149Z,101794.77
2018-12-31T10:04:38.366Z,101798.06
2018-12-31T10:07:07.534Z,101789.12
2018-12-31T10:09:36.704Z,101792.44
2018-12-31T10:12:05.855Z,101799.87
2018-12-31T10:14:35.071Z,101786.81
2018-12-31T10:17:04.231Z,101792.41
2018-12-31T10:19:33.375Z,101792.06
2018-12-31T10:22:02.526Z,101791.41
2018-12-31T10:24:31.669Z,101783.14
2018-12-31T10:27:00.828Z,101783.79
2018-12-31T10:29:36.003Z,101790.88
2018-12-31T10:32:00.831Z,101798.48
2018-12-31T10:34:29.989Z,101792.70
2018-12-31T10:36:59.154Z,101792.83
2018-12-31T10:39:28.280Z,101789.55
2018-12-31T10:41:57.415Z,101779.47
2018-12-31T10:44:26.566Z,101785.07
2018-12-31T10:46:55.727Z,101782.56
2018-12-31T10:49:24.882Z,101780.11
2018-12-31T10:51:54.012Z,101774.98
2018-12-31T10:54:23.161Z,101767.20
2018-12-31T10:56:52.291Z,101767.22
2018-12-31T10:59:21.432Z,101761.27
2018-12-31T11:01:50.560Z,101758.61
2018-12-31T11:04:19.720Z,101752.33
2018-12-31T11:06:48.856Z,101753.47
2018-12-31T11:09:18.010Z,101749.96
2018-12-31T11:11:47.141Z,101747.97
2018-12-31T11:14:16.302Z,101750.62
2018-12-31T11:16:45.433Z,101751.43
2018-12-31T11:19:14.600Z,101746.80
2018-12-31T11:21:43.768Z,101747.15
2018-12-31T11:24:12.914Z,101744.80
2018-12-31T11:26:42.062Z,101742.33
2018-12-31T11:29:11.209Z,101738.19
2018-12-31T11:31:40.337Z,101736.02
2018-12-31T11:34:09.497Z,101739.16
2018-12-31T11:36:38.628Z,101731.72
2018-12-31T11:39:08.036Z,101732.52
2018-12-31T11:41:37.174Z,101726.38
2018-12-31T11:44:06.336Z,101718.60
2018-12-31T11:46:35.457Z,101721.09
2018-12-31T11:49:04.620Z,101725.55
2018-12-31T11:51:33.753Z,101721.22
2018-12-31T11:54:02.910Z,101716.75
2018-12-31T11:56:32.047Z,101703.84
2018-12-31T11:59:01.191Z,101702.16
2018-12-31T12:01:30.503Z,101697.55
2018-12-31T12:03:59.649Z,101695.70
2018-12-31T12:06:28.793Z,101697.02
2018-12-31T12:08:57.946Z,101689.73
2018-12-31T12:11:27.082Z,101697.00
2018-12-31T12:13:56.302Z,101692.82
2018-12-31T12:16:25.457Z,101692.68
2018-12-31T12:18:54.610Z,101688.20
2018-12-31T12:21:24.017Z,101679.43
2018-12-31T12:23:53.183Z,101676.74
2018-12-31T12:26:22.311Z,101683.53
2018-12-31T12:28:51.501Z,101680.20
2018-12-31T12:31:20.646Z,101684.66
2018-12-31T12:33:50.184Z,101687.78
2018-12-31T12:36:19.321Z,101685.45
2018-12-31T12:38:48.458Z,101682.47
2018-12-31T12:41:17.620Z,101685.11
2018-12-31T12:43:46.762Z,101679.31
2018-12-31T12:46:15.980Z,101685.09
2018-12-31T12:48:45.106Z,101680.27
2018-12-31T12:51:14.269Z,101679.10
2018-12-31T12:53:43.397Z,101678.13
2018-12-31T12:56:12.564Z,101682.05
2018-12-31T12:58:41.818Z,101681.37
2018-12-31T13:01:10.958Z,101685.16
2018-12-31T13:03:40.089Z,101690.59
2018-12-31T13:06:09.252Z,101686.63
2018-12-31T13:08:38.390Z,101687.45
2018-12-31T13:11:07.527Z,101686.94
2018-12-31T13:13:36.657Z,101688.25
2018-12-31T13:16:05.814Z,101687.76
2018-12-31T13:18:34.960Z,101684.09
2018-12-31T13:21:04.110Z,101682.92
2018-12-31T13:23:33.331Z,101683.06
2018-12-31T13:26:02.482Z,101687.36
2018-12-31T13:28:31.640Z,101688.84
2018-12-31T13:31:00.787Z,101686.53
2018-12-31T13:33:29.921Z,101683.72
2018-12-31T13:35:59.082Z,101687.84
2018-12-31T13:38:28.222Z,101690.64
2018-12-31T13:40:57.388Z,101694.77
2018-12-31T13:43:26.536Z,101696.41
2018-12-31T13:45:55.693Z,101690.09
2018-12-31T13:48:26.094Z,101695.73
2018-12-31T13:50:55.472Z,101694.73
2018-12-31T13:53:24.624Z,101695.70
2018-12-31T13:55:53.784Z,101692.03
2018-12-31T13:58:23.208Z,101681.44
2018-12-31T14:00:52.367Z,101688.06
2018-12-31T14:03:21.512Z,101691.70
2018-12-31T14:05:50.670Z,101697.81
2018-12-31T14:08:19.815Z,101702.43
2018-12-31T14:10:49.244Z,101707.72
2018-12-31T14:13:19.251Z,101706.56
2018-12-31T14:15:48.430Z,101709.84
2018-12-31T14:18:17.565Z,101710.34
2018-12-31T14:20:46.733Z,101716.95
2018-12-31T14:23:15.884Z,101712.80
2018-12-31T14:25:45.038Z,101716.13
2018-12-31T14:28:14.195Z,101710.64
2018-12-31T14:30:43.329Z,101714.78
2018-12-31T14:33:12.568Z,101713.44
2018-12-31T14:35:45.692Z,101715.91
2018-12-31T14:38:12.598Z,101712.75
2018-12-31T14:40:41.741Z,101717.70
2018-12-31T14:43:10.899Z,101716.71
2018-12-31T14:45:40.044Z,101719.02
2018-12-31T14:48:09.217Z,101725.47
2018-12-31T14:50:38.359Z,101728.13
2018-12-31T14:53:07.527Z,101730.91
2018-12-31T14:55:36.674Z,101728.27
2018-12-31T14:58:05.856Z,101722.46
2018-12-31T15:00:35.000Z,101721.30
2018-12-31T15:03:04.159Z,101723.62
2018-12-31T15:05:33.296Z,101732.55
2018-12-31T15:08:02.526Z,101732.73
2018-12-31T15:10:31.706Z,101728.09
2018-12-31T15:13:00.876Z,101731.89
2018-12-31T15:15:30.026Z,101730.04
2018-12-31T15:17:59.215Z,101730.38
2018-12-31T15:20:28.357Z,101738.97
2018-12-31T15:22:57.514Z,101734.83
2018-12-31T15:25:26.653Z,101734.81
2018-12-31T15:27:55.817Z,101735.01
2018-12-31T15:30:24.951Z,101739.47
2018-12-31T15:32:54.109Z,101735.67
2018-12-31T15:35:23.250Z,101730.38
2018-12-31T15:37:52.411Z,101724.90
2018-12-31T15:40:21.569Z,101722.28
2018-12-31T15:42:50.730Z,101717.97
2018-12-31T15:45:19.890Z,101724.46
2018-12-31T15:47:49.082Z,101729.22
2018-12-31T15:50:18.215Z,101734.02
2018-12-31T15:52:47.377Z,101741.80
2018-12-31T15:55:16.573Z,101733.20
2018-12-31T15:57:45.724Z,101738.83
2018-12-31T16:00:14.858Z,101738.98
2018-12-31T16:02:44.037Z,101743.30
2018-12-31T16:05:13.183Z,101743.81
2018-12-31T16:07:45.932Z,101746.12
2018-12-31T16:10:13.209Z,101743.97
2018-12-31T16:12:42.939Z,101746.63
2018-12-31T16:15:12.156Z,101743.31
2018-12-31T16:17:41.362Z,101743.98
2018-12-31T16:20:10.633Z,101744.65
2018-12-31T16:22:39.776Z,101742.97
2018-12-31T16:25:09.357Z,101743.48
2018-12-31T16:27:38.495Z,101749.42
2018-12-31T16:30:08.296Z,101749.27
2018-12-31T16:32:37.436Z,101749.94
2018-12-31T16:35:06.597Z,101745.47
2018-12-31T16:37:36.113Z,101741.50
2018-12-31T16:40:06.072Z,101742.66
2018-12-31T16:42:35.225Z,101743.14
2018-12-31T16:45:05.514Z,101746.27
2018-12-31T16:47:34.649Z,101747.94
2018-12-31T16:50:04.429Z,101746.46
2018-12-31T16:52:33.563Z,101739.00
2018-12-31T16:55:02.707Z,101741.84
2018-12-31T16:57:31.922Z,101742.65
2018-12-31T17:00:01.065Z,101746.81
2018-12-31T17:02:30.426Z,101744.47
2018-12-31T17:04:59.578Z,101748.13
2018-12-31T17:07:28.724Z,101745.31
2018-12-31T17:09:57.866Z,101748.29
2018-12-31T17:12:26.993Z,101750.77
2018-12-31T17:14:56.529Z,101745.31
2018-12-31T17:17:25.659Z,101749.44
2018-12-31T17:19:54.804Z,101748.13
2018-12-31T17:22:23.937Z,101753.11
2018-12-31T17:24:53.087Z,101754.59
2018-12-31T17:27:22.488Z,101754.56
2018-12-31T17:29:51.634Z,101749.96
2018-12-31T17:32:20.764Z,101758.73
2018-12-31T17:34:49.922Z,101756.42
2018-12-31T17:37:19.043Z,101754.61
2018-12-31T17:39:48.380Z,101760.55
2018-12-31T17:42:17.519Z,101756.75
2018-12-31T17:44:46.667Z,101752.97
2018-12-31T17:47:15.805Z,101748.50
2018-12-31T17:49:44.951Z,101748.31
2018-12-31T17:52:14.257Z,101748.98
2018-12-31T17:54:43.409Z,101745.20
2018-12-31T17:57:12.550Z,101751.31
2018-12-31T17:59:41.705Z,101748.16
2018-12-31T18:02:10.842Z,101750.48
2018-12-31T18:04:40.581Z,101751.66
2018-12-31T18:07:09.710Z,101756.80
2018-12-31T18:09:38.851Z,101761.23
2018-12-31T18:12:07.980Z,101761.78
2018-12-31T18:14:37.128Z,101759.76
2018-12-31T18:17:06.636Z,101761.28
2018-12-31T18:19:35.805Z,101761.77
2018-12-31T18:22:04.958Z,101760.94
2018-12-31T18:24:34.096Z,101760.95
2018-12-31T18:27:03.264Z,101773.02
2018-12-31T18:29:32.976Z,101769.73
2018-12-31T18:32:02.113Z,101774.69
2018-12-31T18:34:31.259Z,101778.48
2018-12-31T18:37:00.416Z,101781.45
2018-12-31T18:39:29.566Z,101781.96
2018-12-31T18:41:59.176Z,101787.25
2018-12-31T18:44:28.336Z,101794.06
2018-12-31T18:46:57.499Z,101792.55
2018-12-31T18:49:26.630Z,101793.39
2018-12-31T18:51:55.763Z,101796.70
2018-12-31T18:54:25.272Z,101795.73
2018-12-31T18:56:54.434Z,101786.30
2018-12-31T18:59:23.563Z,101785.47
2018-12-31T19:01:52.724Z,101785.30
2018-12-31T19:04:21.838Z,101782.67
2018-12-31T19:06:51.376Z,101786.30
2018-12-31T19:09:20.574Z,101783.82
2018-12-31T19:11:49.735Z,101786.98
2018-12-31T19:14:18.844Z,101785.48
2018-12-31T19:16:48.006Z,101791.42
2018-12-31T19:19:17.319Z,101783.82
2018-12-31T19:21:47.482Z,101783.19
2018-12-31T19:24:16.686Z,101787.64
2018-12-31T19:26:45.844Z,101787.66
2018-12-31T19:29:14.979Z,101791.10
2018-12-31T19:31:44.285Z,101797.58
2018-12-31T19:34:13.512Z,101794.28
2018-12-31T19:36:42.663Z,101790.95
2018-12-31T19:39:11.796Z,101782.87
2018-12-31T19:41:40.952Z,101778.73
2018-12-31T19:44:10.151Z,101780.89
2018-12-31T19:46:39.317Z,101776.91
2018-12-31T19:49:08.430Z,101776.56
2018-12-31T19:51:37.598Z,101776.75
2018-12-31T19:54:06.727Z,101772.61
2018-12-31T19:56:35.891Z,101772.95
2018-12-31T19:59:07.777Z,101772.11
2018-12-31T20:01:36.942Z,101766.83
2018-12-31T20:04:06.063Z,101764.33
2018-12-31T20:06:35.212Z,101765.66
2018-12-31T20:09:05.690Z,101757.07
2018-12-31T20:11:34.843Z,101758.70
2018-12-31T20:14:03.994Z,101758.70
2018-12-31T20:16:33.162Z,101756.38
2018-12-31T20:19:02.296Z,101756.73
2018-12-31T20:21:31.482Z,101756.73
2018-12-31T20:24:00.620Z,101748.11
2018-12-31T20:26:29.770Z,101750.62
2018-12-31T20:28:58.902Z,101749.28
2018-12-31T20:31:28.056Z,101748.63
2018-12-31T20:33:57.190Z,101750.77
2018-12-31T20:36:26.623Z,101752.10
2018-12-31T20:38:55.763Z,101744.02
2018-12-31T20:41:24.918Z,101746.00
2018-12-31T20:43:54.045Z,101748.81
2018-12-31T20:46:23.197Z,101744.19
2018-12-31T20:48:52.328Z,101739.72
2018-12-31T20:51:21.469Z,101744.04
2018-12-31T20:53:50.644Z,101736.09
2018-12-31T20:56:19.752Z,101734.75
2018-12-31T20:58:48.902Z,101739.55
2018-12-31T21:01:18.052Z,101739.38
2018-12-31T21:03:47.192Z,101736.58
2018-12-31T21:06:16.322Z,101733.78
2018-12-31T21:08:45.601Z,101729.49
2018-12-31T21:11:14.757Z,101728.17
2018-12-31T21:13:43.914Z,101728.67
2018-12-31T21:16:13.128Z,101730.65
2018-12-31T21:18:42.270Z,101729.98
2018-12-31T21:21:11.431Z,101731.80
2018-12-31T21:23:41.308Z,101731.50
2018-12-31T21:26:10.495Z,101734.28
2018-12-31T21:28:40.027Z,101734.47
2018-12-31T21:31:09.162Z,101725.05
2018-12-31T21:33:38.319Z,101719.08
2018-12-31T21:36:07.462Z,101718.42
2018-12-31T21:38:36.611Z,101719.08
2018-12-31T21:41:06.020Z,101714.45
2018-12-31T21:43:35.165Z,101718.43
2018-12-31T21:46:04.293Z,101722.88
2018-12-31T21:48:33.441Z,101724.38
2018-12-31T21:51:02.570Z,101728.69
2018-12-31T21:53:31.719Z,101727.20
2018-12-31T21:56:00.854Z,101731.81
2018-12-31T21:58:29.998Z,101733.33
2018-12-31T22:00:59.141Z,101733.50
2018-12-31T22:03:28.306Z,101726.05
2018-12-31T22:05:57.461Z,101726.40
2018-12-31T22:08:26.605Z,101730.52
2018-12-31T22:10:55.734Z,101733.69
2018-12-31T22:13:24.886Z,101740.95
2018-12-31T22:15:54.030Z,101740.45
2018-12-31T22:18:23.251Z,101740.63
2018-12-31T22:20:52.437Z,101735.52
2018-12-31T22:23:21.610Z,101739.96
2018-12-31T22:25:50.728Z,101738.33
2018-12-31T22:28:19.877Z,101735.67
2018-12-31T22:30:49.015Z,101732.85
2018-12-31T22:33:18.170Z,101726.73
2018-12-31T22:35:47.306Z,101721.45
2018-12-31T22:38:16.455Z,101722.80
2018-12-31T22:40:45.585Z,101717.83
2018-12-31T22:43:14.735Z,101715.37
2018-12-31T22:45:44.060Z,101720.81
2018-12-31T22:48:13.201Z,101718.19
2018-12-31T22:50:42.348Z,101721.17
2018-12-31T22:53:11.496Z,101721.66
2018-12-31T22:55:40.622Z,101725.63
2018-12-31T22:58:09.976Z,101716.87
2018-12-31T23:00:39.110Z,101720.17
2018-12-31T23:03:08.252Z,101716.02
2018-12-31T23:05:37.436Z,101715.73
2018-12-31T23:08:06.537Z,101711.89
2018-12-31T23:10:35.868Z,101710.92
2018-12-31T23:13:04.997Z,101713.73
2018-12-31T23:15:34.314Z,101711.25
2018-12-31T23:18:03.455Z,101702.81
2018-12-31T23:20:32.602Z,101709.59
2018-12-31T23:23:01.735Z,101706.82
2018-12-31T23:25:30.885Z,101711.09
2018-12-31T23:28:00.026Z,101703.83
2018-12-31T23:30:29.179Z,101704.50
2018-12-31T23:32:58.319Z,101703.00
2018-12-31T23:35:27.940Z,101705.65
2018-12-31T23:37:57.091Z,101704.18
2018-12-31T23:40:26.246Z,101709.32
2018-12-31T23:42:55.381Z,101708.50
2018-12-31T23:45:24.534Z,101704.69
2018-12-31T23:47:54.154Z,101698.41
2018-12-31T23:50:23.312Z,101705.20
2018-12-31T23:52:52.550Z,101703.05
2018-12-31T23:55:21.730Z,101697.25
2018-12-31T23:57:50.844Z,101693.31
